Eugen Maersk — OXOS2 — position and weather

sailwx.info

Track history (hours):
 
Tides and Currents Weather Stations Pressure Air Temp Water Temp Dewpoint Dewpoint Depression Visibility Wind Speed Wind Dir Waves Ship Positions

Eugen Maersk

Last reported at 2018-Apr-25 00:14 UTC. Time now 2018-Apr-25 14:41 UTC.
Position N 01°25' E 104°30'.

Length 398 m; draft 13.1 m.

Type: Ship (hazmat cat A). MMSI: 220503000.

Date/timePositionNaut miles runAvg speedWind from/ knotsBaromVisibWave heightAir tempDewpointWater temp
2018-Apr-25 00:14N 01°25' E 104°30'516.7
2018-Apr-24 23:57N 01°22' E 104°26'716.5
2018-Apr-24 23:30N 01°17' E 104°21'816.1
2018-Apr-24 22:59N 01°16' E 104°12'816.0
2018-Apr-24 22:30N 01°15' E 104°05'815.3
2018-Apr-24 22:00N 01°14' E 103°57'816.0
2018-Apr-24 21:30N 01°10' E 103°50'815.0
2018-Apr-24 21:00N 01°06' E 103°44'714.6
2018-Apr-24 20:30N 01°05' E 103°37'815.5
2018-Apr-24 20:00N 01°09' E 103°30'510.4
2018-Apr-24 19:29N 01°14' E 103°32'5 9.5
2018-Apr-24 18:59N 01°19' E 103°33'1 2.3
2018-Apr-24 18:23N 01°20' E 103°33'0 0.0
2018-Apr-24 17:56N 01°20' E 103°33'0 0.0
2018-Apr-24 17:29N 01°20' E 103°33'0 0.0
2018-Apr-24 16:56N 01°20' E 103°33'0 0.0
2018-Apr-24 16:29N 01°20' E 103°33'0 0.0
2018-Apr-24 15:53N 01°20' E 103°33'0 0.0
2018-Apr-24 15:20N 01°20' E 103°33'0 0.0
2018-Apr-24 14:50N 01°20' E 103°33'0 0.0
2018-Apr-24 14:05N 01°20' E 103°33'0 0.0
2018-Apr-24 13:56N 01°20' E 103°33'0 0.0
2018-Apr-24 13:23N 01°20' E 103°33'0 0.0
2018-Apr-24 12:43N 01°20' E 103°33'0 0.0
2018-Apr-24 12:26N 01°20' E 103°33'0 0.0
2018-Apr-24 11:55N 01°20' E 103°33'0 0.0
2018-Apr-24 11:26N 01°20' E 103°33'0 0.0
2018-Apr-24 10:59N 01°20' E 103°33'0 0.0
2018-Apr-24 10:28N 01°20' E 103°33'0 0.0
2018-Apr-24 09:59N 01°20' E 103°33'0 0.0
2018-Apr-24 09:11N 01°20' E 103°33'0 0.0
2018-Apr-24 08:56N 01°20' E 103°33'0 0.0
2018-Apr-24 08:23N 01°20' E 103°33'0 0.0
2018-Apr-24 07:59N 01°20' E 103°33'0 0.0
2018-Apr-24 07:28N 01°20' E 103°33'0 0.0
2018-Apr-24 06:59N 01°20' E 103°33'0 0.0
2018-Apr-24 06:26N 01°20' E 103°33'0 0.0
2018-Apr-24 05:59N 01°20' E 103°33'0 0.0
2018-Apr-24 05:26N 01°20' E 103°33'0 0.0
2018-Apr-24 04:58N 01°20' E 103°33'0 0.0
2018-Apr-24 04:26N 01°20' E 103°33'0 0.0
2018-Apr-24 03:53N 01°20' E 103°33'0 0.0
2018-Apr-24 03:23N 01°20' E 103°33'0 0.0
2018-Apr-24 02:52N 01°20' E 103°33'0 0.0
2018-Apr-24 02:30N 01°20' E 103°33'0 0.3
2018-Apr-24 01:59N 01°20' E 103°33'2 3.7
2018-Apr-24 01:30N 01°18' E 103°33'1 1.3
2018-Apr-24 01:00N 01°18' E 103°33'3 5.6
2018-Apr-24 00:30N 01°15' E 103°32'3 6.5
2018-Apr-23 23:59N 01°12' E 103°31'1 2.0
2018-Apr-23 23:28N 01°12' E 103°30'2 4.8
2018-Apr-23 22:58N 01°14' E 103°32'2 3.7
2018-Apr-23 22:30N 01°13' E 103°33'4 6.9
2018-Apr-23 22:00N 01°12' E 103°37'3 6.8
2018-Apr-23 21:31N 01°11' E 103°40'3 6.3
2018-Apr-23 20:59N 01°09' E 103°43'3 7.0
2018-Apr-23 20:30N 01°10' E 103°46'815.3
2018-Apr-23 20:00N 01°13' E 103°53'918.0
2018-Apr-23 19:30N 01°16' E 104°02'918.3
2018-Apr-23 18:59N 01°17' E 104°11'918.3
2018-Apr-23 18:29N 01°19' E 104°20'918.8
2018-Apr-23 17:59N 01°25' E 104°27'1118.6
2018-Apr-23 17:24N 01°34' E 104°34'1419.4
2018-Apr-23 16:41N 01°46' E 104°40'920.0
2018-Apr-23 16:15N 01°54' E 104°44'719.2
2018-Apr-23 15:55N 01°59' E 104°47'  
2018-Apr-20 08:40N 22°33' E 119°14'518.6
2018-Apr-20 08:24N 22°37' E 119°18'2818.3
2018-Apr-20 06:53N 22°58' E 119°36'1418.4
2018-Apr-20 06:09N 23°09' E 119°45'218.2
2018-Apr-20 06:00N 23°11' E 119°47'917.7
2018-Apr-20 05:30N 23°19' E 119°51'816.9
2018-Apr-20 05:00N 23°28' E 119°52'816.0
2018-Apr-20 04:31N 23°36' E 119°54'815.6
2018-Apr-20 04:01N 23°43' E 119°55'815.6
2018-Apr-20 03:31N 23°51' E 119°56'2316.5
2018-Apr-20 02:06N 24°13' E 120°05'399 9.0
2018-Apr-18 05:32N 30°38' E 122°03'0 0.0
2018-Apr-18 05:23N 30°38' E 122°03'0 0.0
2018-Apr-18 04:56N 30°38' E 122°03'0 0.0
2018-Apr-18 04:26N 30°38' E 122°03'0 0.0
2018-Apr-18 03:56N 30°38' E 122°03'0 0.0
2018-Apr-18 03:14N 30°38' E 122°03'0 0.0
2018-Apr-17 12:38N 30°38' E 122°03'317.0
2018-Apr-17 12:29N 30°36' E 122°05'11 5.4
2018-Apr-17 10:27N 30°33' E 122°18'5 6.5
2018-Apr-17 09:38N 30°32' E 122°24'1 7.8
2018-Apr-17 09:30N 30°32' E 122°25'2 2.5
2018-Apr-17 08:47N 30°32' E 122°27'  
Track history (hours):
 
Tides and Currents Weather Stations Pressure Air Temp Water Temp Dewpoint Dewpoint Depression Visibility Wind Speed Wind Dir Waves Ship Positions

Eugen Maersk

Last reported at 2018-Apr-25 00:14 UTC. Time now 2018-Apr-25 14:41 UTC.
Position N 01°25' E 104°30'.

Length 398 m; draft 13.1 m.

Type: Ship (hazmat cat A). MMSI: 220503000.

Date/timePositionNaut miles runAvg speedWind from/ knotsBaromVisibWave heightAir tempDewpointWater temp
2018-Apr-25 00:14N 01°25' E 104°30'516.7
2018-Apr-24 23:57N 01°22' E 104°26'716.5
2018-Apr-24 23:30N 01°17' E 104°21'816.1
2018-Apr-24 22:59N 01°16' E 104°12'816.0
2018-Apr-24 22:30N 01°15' E 104°05'815.3
2018-Apr-24 22:00N 01°14' E 103°57'816.0
2018-Apr-24 21:30N 01°10' E 103°50'815.0
2018-Apr-24 21:00N 01°06' E 103°44'714.6
2018-Apr-24 20:30N 01°05' E 103°37'815.5
2018-Apr-24 20:00N 01°09' E 103°30'510.4
2018-Apr-24 19:29N 01°14' E 103°32'5 9.5
2018-Apr-24 18:59N 01°19' E 103°33'1 2.3
2018-Apr-24 18:23N 01°20' E 103°33'0 0.0
2018-Apr-24 17:56N 01°20' E 103°33'0 0.0
2018-Apr-24 17:29N 01°20' E 103°33'0 0.0
2018-Apr-24 16:56N 01°20' E 103°33'0 0.0
2018-Apr-24 16:29N 01°20' E 103°33'0 0.0
2018-Apr-24 15:53N 01°20' E 103°33'0 0.0
2018-Apr-24 15:20N 01°20' E 103°33'0 0.0
2018-Apr-24 14:50N 01°20' E 103°33'0 0.0
2018-Apr-24 14:05N 01°20' E 103°33'0 0.0
2018-Apr-24 13:56N 01°20' E 103°33'0 0.0
2018-Apr-24 13:23N 01°20' E 103°33'0 0.0
2018-Apr-24 12:43N 01°20' E 103°33'0 0.0
2018-Apr-24 12:26N 01°20' E 103°33'0 0.0
2018-Apr-24 11:55N 01°20' E 103°33'0 0.0
2018-Apr-24 11:26N 01°20' E 103°33'0 0.0
2018-Apr-24 10:59N 01°20' E 103°33'0 0.0
2018-Apr-24 10:28N 01°20' E 103°33'0 0.0
2018-Apr-24 09:59N 01°20' E 103°33'0 0.0
2018-Apr-24 09:11N 01°20' E 103°33'0 0.0
2018-Apr-24 08:56N 01°20' E 103°33'0 0.0
2018-Apr-24 08:23N 01°20' E 103°33'0 0.0
2018-Apr-24 07:59N 01°20' E 103°33'0 0.0
2018-Apr-24 07:28N 01°20' E 103°33'0 0.0
2018-Apr-24 06:59N 01°20' E 103°33'0 0.0
2018-Apr-24 06:26N 01°20' E 103°33'0 0.0
2018-Apr-24 05:59N 01°20' E 103°33'0 0.0
2018-Apr-24 05:26N 01°20' E 103°33'0 0.0
2018-Apr-24 04:58N 01°20' E 103°33'0 0.0
2018-Apr-24 04:26N 01°20' E 103°33'0 0.0
2018-Apr-24 03:53N 01°20' E 103°33'0 0.0
2018-Apr-24 03:23N 01°20' E 103°33'0 0.0
2018-Apr-24 02:52N 01°20' E 103°33'0 0.0
2018-Apr-24 02:30N 01°20' E 103°33'0 0.3
2018-Apr-24 01:59N 01°20' E 103°33'2 3.7
2018-Apr-24 01:30N 01°18' E 103°33'1 1.3
2018-Apr-24 01:00N 01°18' E 103°33'3 5.6
2018-Apr-24 00:30N 01°15' E 103°32'3 6.5
2018-Apr-23 23:59N 01°12' E 103°31'1 2.0
2018-Apr-23 23:28N 01°12' E 103°30'2 4.8
2018-Apr-23 22:58N 01°14' E 103°32'2 3.7
2018-Apr-23 22:30N 01°13' E 103°33'4 6.9
2018-Apr-23 22:00N 01°12' E 103°37'3 6.8
2018-Apr-23 21:31N 01°11' E 103°40'3 6.3
2018-Apr-23 20:59N 01°09' E 103°43'3 7.0
2018-Apr-23 20:30N 01°10' E 103°46'815.3
2018-Apr-23 20:00N 01°13' E 103°53'918.0
2018-Apr-23 19:30N 01°16' E 104°02'918.3
2018-Apr-23 18:59N 01°17' E 104°11'918.3
2018-Apr-23 18:29N 01°19' E 104°20'918.8
2018-Apr-23 17:59N 01°25' E 104°27'1118.6
2018-Apr-23 17:24N 01°34' E 104°34'1419.4
2018-Apr-23 16:41N 01°46' E 104°40'920.0
2018-Apr-23 16:15N 01°54' E 104°44'719.2
2018-Apr-23 15:55N 01°59' E 104°47'  
2018-Apr-20 08:40N 22°33' E 119°14'518.6
2018-Apr-20 08:24N 22°37' E 119°18'2818.3
2018-Apr-20 06:53N 22°58' E 119°36'1418.4
2018-Apr-20 06:09N 23°09' E 119°45'218.2
2018-Apr-20 06:00N 23°11' E 119°47'917.7
2018-Apr-20 05:30N 23°19' E 119°51'816.9
2018-Apr-20 05:00N 23°28' E 119°52'816.0
2018-Apr-20 04:31N 23°36' E 119°54'815.6
2018-Apr-20 04:01N 23°43' E 119°55'815.6
2018-Apr-20 03:31N 23°51' E 119°56'2316.5
2018-Apr-20 02:06N 24°13' E 120°05'399 9.0
2018-Apr-18 05:32N 30°38' E 122°03'0 0.0
2018-Apr-18 05:23N 30°38' E 122°03'0 0.0
2018-Apr-18 04:56N 30°38' E 122°03'0 0.0
2018-Apr-18 04:26N 30°38' E 122°03'0 0.0
2018-Apr-18 03:56N 30°38' E 122°03'0 0.0
2018-Apr-18 03:14N 30°38' E 122°03'0 0.0
2018-Apr-17 12:38N 30°38' E 122°03'317.0
2018-Apr-17 12:29N 30°36' E 122°05'11 5.4
2018-Apr-17 10:27N 30°33' E 122°18'5 6.5
2018-Apr-17 09:38N 30°32' E 122°24'1 7.8
2018-Apr-17 09:30N 30°32' E 122°25'2 2.5
2018-Apr-17 08:47N 30°32' E 122°27'  

Dump ship's entire track history